Time;durP1;ratioP1;P1;durP2;ratioP2;P2;SDS_P1;SDS_P2;PMS_P1;PMS_P2;Temp;Humidity;BMP_temperature;BMP_pressure;BME280_temperature;BME280_humidity;BME280_pressure;Samples;Min_cycle;Max_cycle;Signal;HPM_P1;HPM_P2
2023/09/02 00:02:15;;;;;;;20.75;12.93;;;;;;;16.57;100.00;101532.00;5007143;28;20054;-73
2023/09/02 00:04:40;;;;;;;17.73;11.55;;;;;;;16.58;100.00;101534.59;5007298;28;20328;-73
2023/09/02 00:07:06;;;;;;;15.43;11.57;;;;;;;16.59;100.00;101532.72;5007099;28;20045;-74
2023/09/02 00:09:31;;;;;;;17.98;12.40;;;;;;;16.61;100.00;101525.22;5007609;28;20033;-73
2023/09/02 00:11:56;;;;;;;19.38;12.43;;;;;;;16.61;100.00;101522.50;5008083;28;20041;-73
2023/09/02 00:14:22;;;;;;;17.00;12.73;;;;;;;16.56;100.00;101525.63;5026565;28;20046;-71
2023/09/02 00:16:47;;;;;;;16.17;12.02;;;;;;;16.55;100.00;101525.75;5011911;28;20042;-73
2023/09/02 00:19:12;;;;;;;18.40;11.88;;;;;;;16.55;100.00;101534.88;5025844;28;20045;-73
2023/09/02 00:21:38;;;;;;;16.45;11.32;;;;;;;16.57;100.00;101532.88;5021967;28;20061;-73
2023/09/02 00:24:07;;;;;;;15.90;10.70;;;;;;;16.54;100.00;101530.38;5010122;28;20441;-73
2023/09/02 00:26:33;;;;;;;15.68;11.25;;;;;;;16.56;100.00;101535.75;5011329;28;20541;-73
2023/09/02 00:29:00;;;;;;;13.48;10.95;;;;;;;16.56;100.00;101530.25;5027336;28;20108;-73
2023/09/02 00:31:26;;;;;;;16.35;12.65;;;;;;;16.55;100.00;101532.13;5030313;28;20033;-73
2023/09/02 00:33:52;;;;;;;16.77;13.20;;;;;;;16.55;100.00;101534.00;5031303;28;20041;-70
2023/09/02 00:36:17;;;;;;;18.40;12.48;;;;;;;16.53;100.00;101530.50;5024196;28;20421;-73
2023/09/02 00:38:43;;;;;;;18.45;12.85;;;;;;;16.50;100.00;101536.25;5009808;28;20045;-73
2023/09/02 00:41:24;;;;;;;24.05;14.50;;;;;;;16.50;100.00;101541.75;5012258;28;20022;-73
2023/09/02 00:43:49;;;;;;;19.35;13.18;;;;;;;16.47;100.00;101542.03;5031361;28;20501;-72
2023/09/02 00:46:15;;;;;;;17.52;12.57;;;;;;;16.50;100.00;101542.63;5027191;28;20115;-72
2023/09/02 00:48:40;;;;;;;17.10;12.05;;;;;;;16.52;100.00;101537.88;5030451;28;20052;-72
2023/09/02 00:51:05;;;;;;;19.27;12.10;;;;;;;16.54;100.00;101541.38;5027849;28;20389;-72
2023/09/02 00:53:31;;;;;;;16.13;11.98;;;;;;;16.57;100.00;101543.00;5030958;28;20396;-72
2023/09/02 00:55:56;;;;;;;14.77;12.35;;;;;;;16.57;100.00;101553.97;5017206;28;20044;-72
2023/09/02 00:58:22;;;;;;;17.85;11.80;;;;;;;16.58;100.00;101537.34;5025855;28;20034;-71
2023/09/02 01:00:48;;;;;;;18.08;12.23;;;;;;;16.58;100.00;101540.09;5026147;28;20348;-72
2023/09/02 01:03:14;;;;;;;16.98;12.65;;;;;;;16.59;100.00;101539.09;5023963;28;20756;-72
2023/09/02 01:05:40;;;;;;;20.80;12.95;;;;;;;16.57;100.00;101545.72;5009607;28;20405;-72
2023/09/02 01:08:06;;;;;;;16.65;11.25;;;;;;;16.56;100.00;101541.25;5010589;28;20034;-72
2023/09/02 01:10:35;;;;;;;14.75;11.45;;;;;;;16.55;100.00;101544.97;5011784;28;20025;-72
2023/09/02 01:13:02;;;;;;;16.17;11.07;;;;;;;16.54;100.00;101543.25;5010576;28;20033;-72
2023/09/02 01:15:27;;;;;;;17.13;11.48;;;;;;;16.51;100.00;101540.78;5024495;28;20029;-72
2023/09/02 01:17:53;;;;;;;18.67;12.20;;;;;;;16.50;100.00;101542.63;5025487;28;20580;-72
2023/09/02 01:20:24;;;;;;;18.08;12.75;;;;;;;16.44;100.00;101545.91;5008761;28;20034;-72
2023/09/02 01:23:16;;;;;;;18.17;12.75;;;;;;;16.38;100.00;101538.22;5010267;28;20033;-73
2023/09/02 01:26:25;;;;;;;18.77;11.60;;;;;;;16.38;100.00;101546.44;5008779;28;20049;-72
2023/09/02 01:28:55;;;;;;;15.98;11.57;;;;;;;16.37;100.00;101544.72;5025580;28;20041;-72
2023/09/02 01:31:24;;;;;;;16.88;12.15;;;;;;;16.36;100.00;101545.69;5015838;28;20481;-72
2023/09/02 01:33:52;;;;;;;14.93;11.18;;;;;;;16.37;100.00;101552.94;5010467;28;20034;-72
2023/09/02 01:36:21;;;;;;;20.50;12.25;;;;;;;16.36;100.00;101553.94;5009677;28;20671;-72
2023/09/02 01:38:48;;;;;;;19.80;11.90;;;;;;;16.37;100.00;101546.56;5008393;28;20494;-71
2023/09/02 01:41:15;;;;;;;21.17;12.23;;;;;;;16.37;100.00;101550.22;5009832;28;20056;-71
2023/09/02 01:43:42;;;;;;;16.50;11.40;;;;;;;16.37;100.00;101552.06;5025445;28;20060;-71
2023/09/02 01:46:09;;;;;;;15.30;10.77;;;;;;;16.37;100.00;101560.28;5016272;28;20099;-72
2023/09/02 01:48:34;;;;;;;13.90;10.73;;;;;;;16.37;100.00;101563.03;5024944;28;20080;-73
2023/09/02 01:51:01;;;;;;;15.15;11.23;;;;;;;16.34;100.00;101558.69;5023721;28;20076;-72
2023/09/02 01:53:27;;;;;;;17.45;11.95;;;;;;;16.34;100.00;101558.69;5009444;28;20073;-73
2023/09/02 01:55:52;;;;;;;17.85;12.63;;;;;;;16.36;100.00;101561.31;5009281;28;20101;-71
2023/09/02 01:58:18;;;;;;;17.23;11.52;;;;;;;16.33;100.00;101563.31;5025213;28;20200;-73
2023/09/02 02:00:44;;;;;;;17.77;12.27;;;;;;;16.33;100.00;101568.81;5006873;28;20053;-73
2023/09/02 02:03:17;;;;;;;18.17;11.35;;;;;;;16.33;100.00;101562.44;5008471;28;20041;-72
2023/09/02 02:05:52;;;;;;;15.32;10.88;;;;;;;16.34;100.00;101566.94;5007164;28;20048;-73
2023/09/02 02:08:35;;;;;;;21.73;12.30;;;;;;;16.35;100.00;101568.66;5028773;28;20037;-72
2023/09/02 02:11:02;;;;;;;17.75;11.20;;;;;;;16.35;100.00;101570.56;5026650;28;20029;-73
2023/09/02 02:13:27;;;;;;;21.92;12.30;;;;;;;16.33;100.00;101567.94;5009471;28;20042;-72
2023/09/02 02:15:53;;;;;;;17.25;10.85;;;;;;;16.34;100.00;101569.69;5008496;28;20033;-72
2023/09/02 02:18:18;;;;;;;19.15;11.80;;;;;;;16.32;100.00;101569.81;4992231;28;20034;-72
2023/09/02 02:20:58;;;;;;;17.92;12.65;;;;;;;16.33;100.00;101568.81;5023157;28;20042;-73
2023/09/02 02:23:24;;;;;;;19.63;12.13;;;;;;;16.31;100.00;101572.69;5028994;28;20171;-72
2023/09/02 02:25:49;;;;;;;18.38;11.90;;;;;;;16.28;100.00;101572.97;5022827;28;20112;-72
2023/09/02 02:28:15;;;;;;;21.10;11.65;;;;;;;16.27;100.00;101574.84;5017876;28;20188;-72
2023/09/02 02:30:40;;;;;;;17.23;12.70;;;;;;;16.26;100.00;101570.31;5027877;28;20559;-73
2023/09/02 02:33:05;;;;;;;15.48;10.73;;;;;;;16.26;100.00;101578.56;5011908;28;20025;-72
2023/09/02 02:35:32;;;;;;;17.88;10.88;;;;;;;16.25;100.00;101573.22;5007203;28;20045;-73
2023/09/02 02:37:59;;;;;;;17.85;11.38;;;;;;;16.21;100.00;101561.59;4991904;28;20053;-73
2023/09/02 02:40:25;;;;;;;15.18;10.85;;;;;;;16.24;100.00;101587.94;5023721;28;20157;-73
2023/09/02 02:42:50;;;;;;;15.15;9.82;;;;;;;16.25;100.00;101584.19;5024616;28;20549;-72
2023/09/02 02:45:16;;;;;;;14.48;9.50;;;;;;;16.26;100.00;101585.94;5006451;28;20116;-73
2023/09/02 02:47:41;;;;;;;22.05;10.82;;;;;;;16.26;100.00;101586.78;5007570;28;20044;-73
2023/09/02 02:50:07;;;;;;;16.23;11.13;;;;;;;16.25;100.00;101587.81;5007826;28;20530;-72
2023/09/02 02:52:33;;;;;;;15.13;11.02;;;;;;;16.26;100.00;101594.16;5023591;28;20029;-73
2023/09/02 02:54:59;;;;;;;18.25;11.02;;;;;;;16.26;100.00;101584.06;5008574;28;20030;-72
2023/09/02 02:57:24;;;;;;;24.27;10.95;;;;;;;16.27;100.00;101594.06;5019114;28;20041;-72
2023/09/02 02:59:52;;;;;;;23.50;11.50;;;;;;;16.26;100.00;101595.03;5018709;28;20050;-71
2023/09/02 03:02:18;;;;;;;16.48;10.35;;;;;;;16.26;100.00;101600.53;5022716;28;20079;-73
2023/09/02 03:04:48;;;;;;;22.02;10.65;;;;;;;16.24;100.00;101590.69;5026645;28;20389;-73
2023/09/02 03:07:14;;;;;;;13.40;9.50;;;;;;;16.24;100.00;101582.44;5009400;28;20040;-72
2023/09/02 03:09:42;;;;;;;13.50;10.25;;;;;;;16.24;100.00;101590.69;5006923;28;20107;-72
2023/09/02 03:12:07;;;;;;;16.58;11.27;;;;;;;16.25;100.00;101590.56;5008030;28;20474;-72
2023/09/02 03:14:34;;;;;;;16.20;10.05;;;;;;;16.21;100.00;101585.44;5023030;28;20037;-72
2023/09/02 03:16:59;;;;;;;16.85;11.50;;;;;;;16.19;100.00;101585.59;5006386;28;20034;-73
2023/09/02 03:19:26;;;;;;;18.45;12.55;;;;;;;16.17;100.00;101575.72;5023165;28;20040;-72
2023/09/02 03:21:51;;;;;;;21.40;11.63;;;;;;;16.15;100.00;101578.59;5024541;28;20481;-71
2023/09/02 03:24:17;;;;;;;15.80;11.50;;;;;;;16.12;100.00;101583.47;5013074;28;20493;-72
2023/09/02 03:26:43;;;;;;;18.25;10.07;;;;;;;16.10;100.00;101588.25;5011620;28;20036;-73
2023/09/02 03:29:08;;;;;;;13.32;10.50;;;;;;;16.08;100.00;101585.59;5025911;28;20385;-72
2023/09/02 03:31:36;;;;;;;17.90;10.73;;;;;;;16.10;100.00;101588.25;5007095;28;20506;-72
2023/09/02 03:34:03;;;;;;;17.88;10.50;;;;;;;16.10;100.00;101586.34;5006559;28;20482;-72
2023/09/02 03:36:28;;;;;;;14.63;10.45;;;;;;;16.10;100.00;101586.34;5028008;28;20025;-73
2023/09/02 03:38:53;;;;;;;14.93;11.20;;;;;;;16.12;100.00;101588.97;5027625;28;20113;-72
2023/09/02 03:41:20;;;;;;;19.63;11.57;;;;;;;16.13;100.00;101588.81;5023582;28;20378;-72
2023/09/02 03:43:46;;;;;;;16.17;10.48;;;;;;;16.13;100.00;101587.97;5007564;28;20096;-72
2023/09/02 03:46:13;;;;;;;15.93;10.95;;;;;;;16.13;100.00;101597.06;5007624;28;20042;-72
2023/09/02 03:48:39;;;;;;;15.63;10.70;;;;;;;16.14;100.00;101600.72;5025865;28;20034;-72
2023/09/02 03:51:11;;;;;;;19.08;10.68;;;;;;;16.14;100.00;101608.94;5005160;28;20060;-72
2023/09/02 03:53:41;;;;;;;13.00;10.55;;;;;;;16.13;100.00;101612.66;5006544;28;20036;-72
2023/09/02 03:56:09;;;;;;;17.05;11.88;;;;;;;16.13;100.00;101613.53;5006651;28;20030;-72
2023/09/02 03:58:35;;;;;;;13.93;10.77;;;;;;;16.12;100.00;101603.56;5006299;28;20084;-72
2023/09/02 04:01:01;;;;;;;15.65;11.88;;;;;;;16.12;100.00;101599.94;5012785;28;20124;-72
2023/09/02 04:03:28;;;;;;;17.33;12.93;;;;;;;16.12;100.00;101608.19;5008448;28;20113;-73
2023/09/02 04:05:54;;;;;;;17.38;11.55;;;;;;;16.12;100.00;101608.19;4988991;28;20037;-73
2023/09/02 04:08:22;;;;;;;17.70;11.45;;;;;;;16.12;100.00;101605.44;5008329;28;20041;-72
2023/09/02 04:10:53;;;;;;;14.32;10.55;;;;;;;16.12;100.00;101609.06;5006449;28;20026;-72
2023/09/02 04:13:25;;;;;;;16.88;12.73;;;;;;;16.11;100.00;101604.56;5008067;28;20077;-73
2023/09/02 04:15:57;;;;;;;14.43;10.40;;;;;;;16.10;100.00;101608.31;5005119;28;20032;-73
2023/09/02 04:18:25;;;;;;;14.25;10.27;;;;;;;16.12;100.00;101603.56;5005998;28;20041;-72
2023/09/02 04:20:52;;;;;;;16.95;11.68;;;;;;;16.13;100.00;101612.66;5007134;28;20040;-73
2023/09/02 04:23:21;;;;;;;19.75;11.80;;;;;;;16.13;100.00;101609.91;5006732;28;20554;-72
2023/09/02 04:25:52;;;;;;;17.85;11.73;;;;;;;16.13;100.00;101616.28;5006340;28;20460;-72
2023/09/02 04:28:20;;;;;;;17.35;11.18;;;;;;;16.12;100.00;101611.78;5006491;28;20042;-72
2023/09/02 04:30:46;;;;;;;15.15;9.93;;;;;;;16.13;100.00;101615.41;5005300;28;20505;-72
2023/09/02 04:33:14;;;;;;;20.35;11.27;;;;;;;16.13;100.00;101615.41;5005887;28;20037;-72
2023/09/02 04:35:43;;;;;;;15.48;11.73;;;;;;;16.12;100.00;101614.53;5021114;28;20111;-72
2023/09/02 04:38:10;;;;;;;15.80;11.45;;;;;;;16.13;100.00;101615.41;5022169;28;20034;-73
2023/09/02 04:40:37;;;;;;;18.35;11.82;;;;;;;16.11;100.00;101618.28;5005670;28;20072;-72
2023/09/02 04:43:04;;;;;;;15.73;10.82;;;;;;;16.10;100.00;101630.28;5007742;28;20425;-72
2023/09/02 04:45:37;;;;;;;17.27;11.13;;;;;;;16.06;100.00;101626.03;5021578;28;20045;-72
2023/09/02 04:48:07;;;;;;;16.38;11.75;;;;;;;16.04;100.00;101636.25;5005739;28;20098;-73
2023/09/02 04:50:34;;;;;;;14.52;11.43;;;;;;;16.02;100.00;101627.28;5004785;28;20485;-72
2023/09/02 04:53:01;;;;;;;13.98;10.43;;;;;;;16.00;100.00;101630.19;5023905;28;20029;-73
2023/09/02 04:55:30;;;;;;;15.43;10.20;;;;;;;16.01;100.00;101631.91;5025630;28;20026;-72
2023/09/02 04:57:57;;;;;;;14.77;11.23;;;;;;;16.01;100.00;101639.28;5010343;28;20044;-73
2023/09/02 05:00:24;;;;;;;17.17;11.00;;;;;;;16.00;100.00;101638.41;5007912;28;20052;-72
2023/09/02 05:02:50;;;;;;;19.83;12.35;;;;;;;16.00;100.00;101632.06;5009836;28;20025;-73
2023/09/02 05:05:17;;;;;;;14.68;11.27;;;;;;;15.96;100.00;101625.06;5008267;28;20519;-72
2023/09/02 05:07:42;;;;;;;17.67;12.00;;;;;;;15.93;100.00;101628.94;4998522;28;20038;-72
2023/09/02 05:10:09;;;;;;;20.60;11.10;;;;;;;15.90;100.00;101626.44;5019466;28;20034;-72
2023/09/02 05:12:35;;;;;;;15.82;10.13;;;;;;;15.89;100.00;101626.56;5012809;28;20464;-73
2023/09/02 05:15:02;;;;;;;16.88;11.45;;;;;;;15.87;100.00;101632.19;5022322;28;20036;-72
2023/09/02 05:17:31;;;;;;;15.98;11.40;;;;;;;15.88;100.00;101635.81;5027391;28;20114;-73
2023/09/02 05:19:57;;;;;;;13.45;9.52;;;;;;;15.87;100.00;101640.41;5009437;28;20156;-72
2023/09/02 05:22:22;;;;;;;15.35;10.55;;;;;;;15.87;100.00;101640.41;5018919;28;20112;-72
2023/09/02 05:24:48;;;;;;;11.55;8.95;;;;;;;15.88;100.00;101655.88;5028585;28;20498;-72
2023/09/02 05:27:13;;;;;;;15.23;9.15;;;;;;;15.86;100.00;101655.16;5027734;28;20477;-72
2023/09/02 05:29:39;;;;;;;14.70;10.23;;;;;;;15.86;100.00;101660.63;5027673;28;20034;-72
2023/09/02 05:32:04;;;;;;;16.50;10.95;;;;;;;15.85;100.00;101658.00;5028881;28;20104;-72
2023/09/02 05:34:30;;;;;;;15.82;10.30;;;;;;;15.88;100.00;101663.25;5022832;28;20045;-72
2023/09/02 05:36:55;;;;;;;21.17;11.30;;;;;;;15.88;100.00;101671.47;5024533;28;20505;-72
2023/09/02 05:39:20;;;;;;;18.67;11.13;;;;;;;15.88;100.00;101666.84;5030063;28;20045;-72
2023/09/02 05:41:46;;;;;;;17.25;11.93;;;;;;;15.90;100.00;101673.09;5023604;28;20025;-73
2023/09/02 05:44:12;;;;;;;19.63;11.63;;;;;;;15.92;100.00;101671.09;5009585;28;20041;-72
2023/09/02 05:46:37;;;;;;;17.52;11.20;;;;;;;15.97;100.00;101671.59;5008275;28;20044;-72
2023/09/02 05:49:03;;;;;;;16.90;11.68;;;;;;;16.00;100.00;101674.09;5009515;28;20018;-73
2023/09/02 05:51:29;;;;;;;27.98;12.00;;;;;;;16.01;100.00;101680.44;5025941;28;20171;-73
2023/09/02 05:53:55;;;;;;;26.73;12.52;;;;;;;16.02;100.00;101687.69;5029748;28;20017;-72
2023/09/02 05:56:20;;;;;;;17.90;11.68;;;;;;;16.05;100.00;101676.47;5027519;28;20116;-72
2023/09/02 05:58:45;;;;;;;18.50;11.20;;;;;;;16.13;100.00;101686.78;5008051;28;20845;-72
2023/09/02 06:01:11;;;;;;;23.92;11.63;;;;;;;16.16;100.00;101686.53;5020452;28;20065;-72
2023/09/02 06:03:36;;;;;;;17.13;10.82;;;;;;;16.20;100.00;101688.03;5017961;28;20030;-72
2023/09/02 06:06:08;;;;;;;17.67;11.10;;;;;;;16.23;100.00;101694.16;5010404;28;20041;-72
2023/09/02 06:08:34;;;;;;;18.80;11.23;;;;;;;16.27;100.00;101686.50;5015906;28;20041;-72
2023/09/02 06:11:00;;;;;;;19.15;11.10;;;;;;;16.30;100.00;101689.88;5009553;28;20042;-72
2023/09/02 06:13:26;;;;;;;17.85;11.52;;;;;;;16.31;100.00;101688.88;5027447;28;20715;-73
2023/09/02 06:15:51;;;;;;;17.10;12.57;;;;;;;16.32;100.00;101695.28;5028845;28;20037;-72
2023/09/02 06:18:17;;;;;;;17.35;11.95;;;;;;;16.33;100.00;101700.63;5028863;28;20049;-72
2023/09/02 06:20:42;;;;;;;13.90;11.30;;;;;;;16.39;100.00;101703.88;5008270;28;20034;-71
2023/09/02 06:23:07;;;;;;;15.82;10.93;;;;;;;16.46;100.00;101707.81;5040433;28;20038;-71
2023/09/02 06:25:33;;;;;;;17.98;11.15;;;;;;;16.57;100.00;101714.19;5008969;28;20041;-73
2023/09/02 06:27:58;;;;;;;15.35;11.23;;;;;;;16.67;100.00;101706.03;5009116;28;20037;-73
2023/09/02 06:30:23;;;;;;;14.77;12.23;;;;;;;16.75;100.00;101719.16;5023002;28;20037;-73
2023/09/02 06:32:49;;;;;;;16.20;13.35;;;;;;;16.80;100.00;101716.91;5015255;28;20524;-73
2023/09/02 06:35:15;;;;;;;18.48;13.35;;;;;;;16.83;100.00;101716.63;5027986;28;20540;-73
2023/09/02 06:37:43;;;;;;;24.20;15.27;;;;;;;16.85;100.00;101722.88;5012627;28;20441;-72
2023/09/02 06:40:10;;;;;;;21.05;15.68;;;;;;;16.90;100.00;101731.59;5008589;28;20052;-73
2023/09/02 06:42:35;;;;;;;20.23;15.27;;;;;;;16.97;100.00;101731.94;5007625;28;20486;-72
2023/09/02 06:45:01;;;;;;;21.00;16.48;;;;;;;17.04;100.00;101742.28;5008277;28;20042;-72
2023/09/02 06:47:26;;;;;;;21.73;17.13;;;;;;;17.05;100.00;101738.53;5008191;28;20038;-72
2023/09/02 06:49:51;;;;;;;22.27;17.30;;;;;;;17.09;100.00;101747.41;5008786;28;20045;-71
2023/09/02 06:52:17;;;;;;;21.80;16.88;;;;;;;17.11;100.00;101750.88;5023674;28;20543;-72
2023/09/02 06:54:42;;;;;;;22.45;15.40;;;;;;;17.13;100.00;101759.00;5008700;28;20497;-73
2023/09/02 06:57:08;;;;;;;21.05;15.10;;;;;;;17.14;100.00;101756.13;5008384;28;20096;-72
2023/09/02 06:59:34;;;;;;;20.50;14.73;;;;;;;17.25;100.00;101772.59;5007932;28;20050;-73
2023/09/02 07:01:59;;;;;;;22.10;16.15;;;;;;;17.34;100.00;101777.28;5008161;28;20367;-72
2023/09/02 07:04:24;;;;;;;21.67;16.00;;;;;;;17.41;100.00;101777.63;5008506;28;20040;-73
2023/09/02 07:06:51;;;;;;;19.38;15.95;;;;;;;17.49;100.00;101783.34;5016783;28;20060;-72
2023/09/02 07:09:17;;;;;;;22.65;16.45;;;;;;;17.55;100.00;101784.69;5028746;28;20045;-72
2023/09/02 07:11:42;;;;;;;22.08;17.38;;;;;;;17.62;100.00;101794.13;5022870;28;20034;-73
2023/09/02 07:14:07;;;;;;;22.92;17.75;;;;;;;17.71;100.00;101798.84;5007945;28;20053;-73
2023/09/02 07:16:33;;;;;;;21.88;16.80;;;;;;;17.79;100.00;101796.34;5006129;28;20140;-73
2023/09/02 07:18:58;;;;;;;20.42;16.77;;;;;;;17.91;100.00;101808.16;5007845;28;20382;-73
2023/09/02 07:21:24;;;;;;;25.98;18.85;;;;;;;18.01;100.00;101808.22;5007051;28;20056;-73
2023/09/02 07:23:51;;;;;;;24.27;16.85;;;;;;;18.11;100.00;101814.66;5007247;28;20029;-73
2023/09/02 07:26:17;;;;;;;24.17;17.48;;;;;;;18.19;100.00;101812.09;5007903;28;20125;-73
2023/09/02 07:28:42;;;;;;;22.77;17.42;;;;;;;18.31;100.00;101816.47;5022472;28;20037;-72
2023/09/02 07:31:09;;;;;;;24.40;18.67;;;;;;;18.32;100.00;101818.22;5002631;28;20022;-73
2023/09/02 07:33:34;;;;;;;25.20;17.98;;;;;;;18.35;100.00;101823.47;5023242;28;20033;-73
2023/09/02 07:36:10;;;;;;;23.90;18.00;;;;;;;18.29;100.00;101818.50;5023508;28;20037;-73
2023/09/02 07:38:37;;;;;;;23.83;18.40;;;;;;;18.33;100.00;101824.63;5020579;28;20046;-71
2023/09/02 07:41:02;;;;;;;24.23;18.88;;;;;;;18.39;100.00;101821.31;5027150;28;20045;-72
2023/09/02 07:43:28;;;;;;;25.42;18.45;;;;;;;18.45;100.00;101833.66;5008952;28;20516;-72
2023/09/02 07:45:54;;;;;;;26.80;20.23;;;;;;;18.47;100.00;101829.78;5012264;28;20069;-73
2023/09/02 07:48:19;;;;;;;24.35;18.92;;;;;;;18.43;100.00;101832.94;5015235;28;20050;-71
2023/09/02 07:50:44;;;;;;;26.67;19.30;;;;;;;18.41;100.00;101835.81;5018769;28;20042;-72
2023/09/02 07:53:10;;;;;;;29.02;19.10;;;;;;;18.41;100.00;101830.31;5006485;28;20410;-73
2023/09/02 07:55:36;;;;;;;26.27;19.98;;;;;;;18.45;100.00;101844.69;5006648;28;20509;-73
2023/09/02 07:58:01;;;;;;;25.20;19.77;;;;;;;18.45;100.00;101842.78;5010217;28;20069;-74
2023/09/02 08:00:28;;;;;;;26.70;20.65;;;;;;;18.46;100.00;101840.91;5015872;28;20092;-73
2023/09/02 08:02:53;;;;;;;27.95;21.13;;;;;;;18.44;100.00;101837.44;5022745;28;20029;-74
2023/09/02 08:05:19;;;;;;;28.60;20.77;;;;;;;18.40;100.00;101844.22;5006961;28;20034;-73
2023/09/02 08:07:44;;;;;;;32.30;22.23;;;;;;;18.32;100.00;101839.38;5013013;28;20035;-73
2023/09/02 08:10:10;;;;;;;30.55;22.02;;;;;;;18.32;100.00;101843.00;5010573;28;20069;-74
2023/09/02 08:12:36;;;;;;;30.00;21.38;;;;;;;18.36;100.00;101849.13;5020943;28;20036;-73
2023/09/02 08:15:01;;;;;;;28.85;22.33;;;;;;;18.34;100.00;101843.78;5021116;28;20436;-74
2023/09/02 08:17:26;;;;;;;32.00;23.02;;;;;;;18.38;100.00;101852.63;5023566;28;20083;-74
2023/09/02 08:19:52;;;;;;;31.08;22.35;;;;;;;18.39;100.00;101848.88;5014256;28;20073;-71
2023/09/02 08:22:17;;;;;;;31.20;23.27;;;;;;;18.40;100.00;101855.25;5010055;28;20116;-74
2023/09/02 08:24:43;;;;;;;29.08;21.80;;;;;;;18.48;100.00;101844.41;5015744;28;20041;-74
2023/09/02 08:27:08;;;;;;;33.05;23.50;;;;;;;18.54;100.00;101846.59;5006651;28;20107;-74
2023/09/02 08:29:33;;;;;;;31.95;22.98;;;;;;;18.51;100.00;101850.53;5013453;28;20044;-74
2023/09/02 08:32:00;;;;;;;31.60;24.00;;;;;;;18.51;100.00;101856.03;5006545;28;20042;-74
2023/09/02 08:34:26;;;;;;;32.50;23.83;;;;;;;18.55;100.00;101862.13;5016536;28;20061;-74
2023/09/02 08:36:51;;;;;;;35.90;23.48;;;;;;;18.71;100.00;101865.28;5025445;28;20167;-73
2023/09/02 08:39:16;;;;;;;30.15;22.58;;;;;;;18.89;100.00;101859.13;5030916;28;20057;-74
2023/09/02 08:41:45;;;;;;;35.92;23.38;;;;;;;19.07;100.00;101863.81;5016704;28;20081;-74
2023/09/02 08:44:15;;;;;;;36.67;23.50;;;;;;;19.20;100.00;101871.81;5011059;28;20032;-74
2023/09/02 08:46:41;;;;;;;33.47;23.50;;;;;;;19.24;100.00;101873.28;5011430;28;20034;-73
2023/09/02 08:49:08;;;;;;;33.50;23.70;;;;;;;19.34;100.00;101881.56;5016594;28;20037;-74
2023/09/02 08:51:35;;;;;;;30.83;23.50;;;;;;;19.42;100.00;101887.25;5015408;28;20045;-74
2023/09/02 08:54:01;;;;;;;30.17;22.35;;;;;;;19.39;100.00;101882.00;5022565;28;20041;-74
2023/09/02 08:56:27;;;;;;;28.80;22.83;;;;;;;19.34;100.00;101878.81;5022455;28;20036;-74
2023/09/02 08:58:55;;;;;;;28.25;21.85;;;;;;;19.38;100.00;101885.78;5012550;28;20045;-71
2023/09/02 09:01:23;;;;;;;31.25;22.75;;;;;;;19.44;100.00;101884.34;5018182;28;20121;-74
2023/09/02 09:03:52;;;;;;;30.77;23.15;;;;;;;19.51;100.00;101886.38;5019061;28;20469;-74
2023/09/02 09:06:23;;;;;;;30.25;23.35;;;;;;;19.55;100.00;101890.59;5024812;28;20045;-74
2023/09/02 09:08:50;;;;;;;28.88;22.20;;;;;;;19.69;100.00;101892.09;5027885;28;20060;-74
2023/09/02 09:11:17;;;;;;;32.88;23.67;;;;;;;19.80;100.00;101894.72;5029274;28;20037;-74
2023/09/02 09:13:46;;;;;;;32.22;24.00;;;;;;;19.88;100.00;101891.22;5026346;28;20041;-74
2023/09/02 09:16:15;;;;;;;30.67;22.42;;;;;;;19.79;100.00;101904.00;5012278;28;20103;-74
2023/09/02 09:18:41;;;;;;;30.08;22.10;;;;;;;19.78;100.00;101898.66;5010423;28;20069;-75
2023/09/02 09:21:07;;;;;;;33.30;23.52;;;;;;;19.87;100.00;101884.84;5009373;28;20120;-74
2023/09/02 09:23:35;;;;;;;32.35;23.55;;;;;;;19.92;100.00;101887.16;5009144;28;20084;-72
2023/09/02 09:26:03;;;;;;;32.53;23.48;;;;;;;19.90;100.00;101885.53;5008804;28;20025;-72
2023/09/02 09:28:50;;;;;;;32.58;23.67;;;;;;;20.02;100.00;101889.91;5010686;28;20172;-75
2023/09/02 09:31:17;;;;;;;34.38;25.55;;;;;;;20.03;100.00;101892.50;5009203;28;20449;-75
2023/09/02 09:33:54;;;;;;;33.38;24.60;;;;;;;20.06;100.00;101902.41;5010468;28;20957;-75
2023/09/02 09:36:23;;;;;;;38.13;25.88;;;;;;;20.09;100.00;101914.00;5009791;28;20092;-75
2023/09/02 09:38:52;;;;;;;38.67;26.35;;;;;;;20.03;100.00;101920.13;5010812;28;20041;-74
2023/09/02 09:41:17;;;;;;;37.42;25.00;;;;;;;20.05;100.00;101923.66;5010080;28;20107;-75
2023/09/02 09:43:43;;;;;;;36.75;27.08;;;;;;;20.11;100.00;101923.03;5009513;28;20533;-75
2023/09/02 09:46:12;;;;;;;37.88;27.52;;;;;;;20.23;100.00;101933.94;5006234;28;20541;-74
2023/09/02 09:48:45;;;;;;;45.00;28.40;;;;;;;20.34;100.00;101942.94;5018660;28;20051;-74
2023/09/02 09:51:22;;;;;;;38.97;25.83;;;;;;;20.45;100.00;101941.91;5011275;28;20026;-74
2023/09/02 09:53:47;;;;;;;39.38;27.35;;;;;;;20.60;100.00;101931.25;5028623;28;20048;-74
2023/09/02 09:56:13;;;;;;;36.70;27.40;;;;;;;20.72;98.51;101932.84;5029053;28;20096;-74
2023/09/02 09:58:38;;;;;;;34.22;25.45;;;;;;;20.66;99.12;101930.69;5009734;28;20037;-73
2023/09/02 10:01:04;;;;;;;36.50;26.13;;;;;;;20.68;98.50;101927.75;5007510;28;20093;-74
2023/09/02 10:03:32;;;;;;;38.35;28.60;;;;;;;20.77;100.00;101929.63;5023971;28;20052;-74
2023/09/02 10:05:59;;;;;;;38.22;26.35;;;;;;;20.82;100.00;101930.03;5013556;28;20042;-74
2023/09/02 10:08:24;;;;;;;40.67;27.52;;;;;;;20.70;100.00;101936.75;5009657;28;20018;-75
2023/09/02 10:10:50;;;;;;;39.58;28.25;;;;;;;20.51;99.30;101937.69;5008530;28;20497;-75
2023/09/02 10:13:15;;;;;;;41.88;27.98;;;;;;;20.49;99.96;101940.63;5021807;28;20485;-75
2023/09/02 10:15:42;;;;;;;43.05;27.95;;;;;;;20.65;100.00;101948.28;5006896;28;20486;-75
2023/09/02 10:18:07;;;;;;;36.63;27.58;;;;;;;20.74;98.56;101950.13;5024493;28;20048;-73
2023/09/02 10:20:35;;;;;;;37.30;27.50;;;;;;;20.71;98.99;101960.66;5027377;28;20029;-76
2023/09/02 10:23:08;;;;;;;36.78;25.70;;;;;;;20.68;98.97;101967.34;5010630;28;20037;-75
2023/09/02 10:25:45;;;;;;;37.53;26.67;;;;;;;20.93;99.06;101973.22;5024452;28;20371;-74
2023/09/02 10:28:20;;;;;;;37.38;26.33;;;;;;;20.89;98.78;101965.25;5024201;28;20029;-75
2023/09/02 10:30:48;;;;;;;38.60;27.83;;;;;;;20.94;100.00;101956.50;5006673;28;20091;-76
2023/09/02 10:33:38;;;;;;;37.40;27.65;;;;;;;20.92;99.54;101971.50;5024372;28;20779;-77
2023/09/02 10:36:05;;;;;;;35.65;25.65;;;;;;;20.98;98.05;101963.44;5016633;28;20107;-76
2023/09/02 10:38:40;;;;;;;34.55;26.10;;;;;;;20.80;95.28;101976.34;5024215;28;20026;-75
2023/09/02 10:41:12;;;;;;;32.47;25.48;;;;;;;20.73;97.42;101980.72;5007104;28;20037;-73
2023/09/02 10:43:39;;;;;;;38.20;24.90;;;;;;;20.82;98.40;101977.94;5009149;28;20044;-76
2023/09/02 10:46:05;;;;;;;34.45;25.10;;;;;;;21.08;98.35;101974.50;5008122;28;20057;-74
2023/09/02 10:48:32;;;;;;;32.65;25.45;;;;;;;20.96;95.49;101978.47;5008549;28;20037;-74
2023/09/02 10:50:59;;;;;;;32.80;24.90;;;;;;;20.98;96.50;101981.94;5023023;28;20026;-75
2023/09/02 10:53:56;;;;;;;33.22;24.30;;;;;;;21.17;98.76;101981.88;5007329;28;20034;-74
2023/09/02 10:56:33;;;;;;;33.70;23.77;;;;;;;21.21;97.72;101980.53;5008705;28;20136;-76
2023/09/02 10:59:03;;;;;;;32.25;24.58;;;;;;;21.18;96.29;101982.75;5006895;28;20443;-75
2023/09/02 11:01:47;;;;;;;35.17;25.88;;;;;;;21.09;96.75;101987.31;5008051;28;20406;-75
2023/09/02 11:04:14;;;;;;;33.67;25.67;;;;;;;20.97;94.59;101985.75;5008487;28;20386;-76